Al Kharsaah — C6VG3 — position and weather

sailwx.info

Track history (hours):
 
Tides and Currents Weather Stations Pressure Air Temp Water Temp Dewpoint Dewpoint Depression Visibility Wind Speed Wind Dir Waves Ship Positions

Al Kharsaah

Last reported at 2018-Feb-24 06:27 UTC. Time now 2018-Feb-24 06:36 UTC.
Position N 01°11' E 103°41'.

Length 315 m; draft 9.2 m.

Type: Ship (hazmat cat D). MMSI: 309333000.

Date/timePositionNaut miles runAvg speedWind from/ knotsBaromVisibWave heightAir tempDewpointWater temp
2018-Feb-24 06:27N 01°11' E 103°41'0 0.0
2018-Feb-24 05:57N 01°11' E 103°41'0 0.0
2018-Feb-24 05:30N 01°11' E 103°41'0 0.0
2018-Feb-24 04:57N 01°11' E 103°41'0 0.0
2018-Feb-24 04:30N 01°11' E 103°41'0 0.0
2018-Feb-24 03:57N 01°11' E 103°41'0 0.0
2018-Feb-24 03:30N 01°11' E 103°41'0 0.0
2018-Feb-24 02:54N 01°11' E 103°41'0 0.0
2018-Feb-24 02:30N 01°11' E 103°41'0 0.1
2018-Feb-24 01:51N 01°11' E 103°41'0 0.0
2018-Feb-24 01:24N 01°11' E 103°41'0 0.0
2018-Feb-24 00:57N 01°11' E 103°41'0 0.3
2018-Feb-24 00:30N 01°11' E 103°41'0 0.1
2018-Feb-23 23:57N 01°11' E 103°41'0 0.1
2018-Feb-23 23:30N 01°11' E 103°41'0 0.1
2018-Feb-23 22:57N 01°11' E 103°41'0 0.0
2018-Feb-23 22:30N 01°11' E 103°41'0 0.0
2018-Feb-23 21:57N 01°11' E 103°41'0 0.1
2018-Feb-23 21:30N 01°11' E 103°41'0 0.0
2018-Feb-23 20:57N 01°11' E 103°41'0 0.1
2018-Feb-23 20:30N 01°11' E 103°41'0 0.0
2018-Feb-23 19:57N 01°11' E 103°41'0 0.0
2018-Feb-23 19:27N 01°11' E 103°41'0 0.1
2018-Feb-23 18:54N 01°11' E 103°41'0 0.2
2018-Feb-23 18:30N 01°11' E 103°41'0 0.2
2018-Feb-23 17:54N 01°11' E 103°41'0 0.1
2018-Feb-23 17:30N 01°11' E 103°41'0 0.1
2018-Feb-23 16:57N 01°11' E 103°41'0 0.1
2018-Feb-23 16:27N 01°11' E 103°41'0 0.1
2018-Feb-23 15:57N 01°11' E 103°41'0 0.1
2018-Feb-23 15:30N 01°11' E 103°41'0 0.1
2018-Feb-23 15:00N 01°11' E 103°41'0 0.0
2018-Feb-23 14:30N 01°11' E 103°41'0 0.0
2018-Feb-23 13:54N 01°11' E 103°41'0 0.1
2018-Feb-23 13:27N 01°11' E 103°41'0 0.0
2018-Feb-23 12:57N 01°11' E 103°41'0 0.2
2018-Feb-23 12:30N 01°11' E 103°41'0 0.1
2018-Feb-23 11:57N 01°11' E 103°41'0 0.0
2018-Feb-23 11:30N 01°11' E 103°41'0 0.1
2018-Feb-23 10:57N 01°11' E 103°41'0 0.1
2018-Feb-23 10:30N 01°11' E 103°41'0 0.3
2018-Feb-23 09:57N 01°11' E 103°41'0 0.0
2018-Feb-23 09:30N 01°11' E 103°41'0 0.0
2018-Feb-23 08:57N 01°11' E 103°41'0 0.1
2018-Feb-23 08:30N 01°11' E 103°41'0 0.1
2018-Feb-23 07:57N 01°11' E 103°41'0 0.1
2018-Feb-23 07:30N 01°11' E 103°41'0 0.3
2018-Feb-23 06:51N 01°11' E 103°41'0 0.1
2018-Feb-23 06:30N 01°11' E 103°41'0 0.1
2018-Feb-23 05:57N 01°11' E 103°41'0 0.1
2018-Feb-23 05:30N 01°11' E 103°41'0 0.2
2018-Feb-23 04:57N 01°11' E 103°41'0 0.2
2018-Feb-23 04:30N 01°11' E 103°41'0 0.0
2018-Feb-23 03:57N 01°11' E 103°41'0 0.1
2018-Feb-23 03:30N 01°11' E 103°41'0 0.0
2018-Feb-23 02:57N 01°11' E 103°41'0 0.0
2018-Feb-23 02:30N 01°11' E 103°41'0 0.0
2018-Feb-23 01:54N 01°11' E 103°41'0 0.2
2018-Feb-23 01:30N 01°11' E 103°41'0 0.1
2018-Feb-23 00:57N 01°11' E 103°41'0 0.1
2018-Feb-23 00:30N 01°11' E 103°41'0 0.0
2018-Feb-23 00:00N 01°11' E 103°41'0 0.1
2018-Feb-22 23:30N 01°11' E 103°41'0 0.1
2018-Feb-22 22:57N 01°11' E 103°41'1 2.2
2018-Feb-22 22:30N 01°10' E 103°42'4 7.3
2018-Feb-22 22:01N 01°09' E 103°45'4 8.7
2018-Feb-22 21:31N 01°11' E 103°49'4 7.6
2018-Feb-22 21:00N 01°12' E 103°53'610.9
2018-Feb-22 20:30N 01°15' E 103°58'4 8.9
2018-Feb-22 20:00N 01°15' E 104°02'  
Track history (hours):
 
Tides and Currents Weather Stations Pressure Air Temp Water Temp Dewpoint Dewpoint Depression Visibility Wind Speed Wind Dir Waves Ship Positions

Al Kharsaah

Last reported at 2018-Feb-24 06:27 UTC. Time now 2018-Feb-24 06:36 UTC.
Position N 01°11' E 103°41'.

Length 315 m; draft 9.2 m.

Type: Ship (hazmat cat D). MMSI: 309333000.

Date/timePositionNaut miles runAvg speedWind from/ knotsBaromVisibWave heightAir tempDewpointWater temp
2018-Feb-24 06:27N 01°11' E 103°41'0 0.0
2018-Feb-24 05:57N 01°11' E 103°41'0 0.0
2018-Feb-24 05:30N 01°11' E 103°41'0 0.0
2018-Feb-24 04:57N 01°11' E 103°41'0 0.0
2018-Feb-24 04:30N 01°11' E 103°41'0 0.0
2018-Feb-24 03:57N 01°11' E 103°41'0 0.0
2018-Feb-24 03:30N 01°11' E 103°41'0 0.0
2018-Feb-24 02:54N 01°11' E 103°41'0 0.0
2018-Feb-24 02:30N 01°11' E 103°41'0 0.1
2018-Feb-24 01:51N 01°11' E 103°41'0 0.0
2018-Feb-24 01:24N 01°11' E 103°41'0 0.0
2018-Feb-24 00:57N 01°11' E 103°41'0 0.3
2018-Feb-24 00:30N 01°11' E 103°41'0 0.1
2018-Feb-23 23:57N 01°11' E 103°41'0 0.1
2018-Feb-23 23:30N 01°11' E 103°41'0 0.1
2018-Feb-23 22:57N 01°11' E 103°41'0 0.0
2018-Feb-23 22:30N 01°11' E 103°41'0 0.0
2018-Feb-23 21:57N 01°11' E 103°41'0 0.1
2018-Feb-23 21:30N 01°11' E 103°41'0 0.0
2018-Feb-23 20:57N 01°11' E 103°41'0 0.1
2018-Feb-23 20:30N 01°11' E 103°41'0 0.0
2018-Feb-23 19:57N 01°11' E 103°41'0 0.0
2018-Feb-23 19:27N 01°11' E 103°41'0 0.1
2018-Feb-23 18:54N 01°11' E 103°41'0 0.2
2018-Feb-23 18:30N 01°11' E 103°41'0 0.2
2018-Feb-23 17:54N 01°11' E 103°41'0 0.1
2018-Feb-23 17:30N 01°11' E 103°41'0 0.1
2018-Feb-23 16:57N 01°11' E 103°41'0 0.1
2018-Feb-23 16:27N 01°11' E 103°41'0 0.1
2018-Feb-23 15:57N 01°11' E 103°41'0 0.1
2018-Feb-23 15:30N 01°11' E 103°41'0 0.1
2018-Feb-23 15:00N 01°11' E 103°41'0 0.0
2018-Feb-23 14:30N 01°11' E 103°41'0 0.0
2018-Feb-23 13:54N 01°11' E 103°41'0 0.1
2018-Feb-23 13:27N 01°11' E 103°41'0 0.0
2018-Feb-23 12:57N 01°11' E 103°41'0 0.2
2018-Feb-23 12:30N 01°11' E 103°41'0 0.1
2018-Feb-23 11:57N 01°11' E 103°41'0 0.0
2018-Feb-23 11:30N 01°11' E 103°41'0 0.1
2018-Feb-23 10:57N 01°11' E 103°41'0 0.1
2018-Feb-23 10:30N 01°11' E 103°41'0 0.3
2018-Feb-23 09:57N 01°11' E 103°41'0 0.0
2018-Feb-23 09:30N 01°11' E 103°41'0 0.0
2018-Feb-23 08:57N 01°11' E 103°41'0 0.1
2018-Feb-23 08:30N 01°11' E 103°41'0 0.1
2018-Feb-23 07:57N 01°11' E 103°41'0 0.1
2018-Feb-23 07:30N 01°11' E 103°41'0 0.3
2018-Feb-23 06:51N 01°11' E 103°41'0 0.1
2018-Feb-23 06:30N 01°11' E 103°41'0 0.1
2018-Feb-23 05:57N 01°11' E 103°41'0 0.1
2018-Feb-23 05:30N 01°11' E 103°41'0 0.2
2018-Feb-23 04:57N 01°11' E 103°41'0 0.2
2018-Feb-23 04:30N 01°11' E 103°41'0 0.0
2018-Feb-23 03:57N 01°11' E 103°41'0 0.1
2018-Feb-23 03:30N 01°11' E 103°41'0 0.0
2018-Feb-23 02:57N 01°11' E 103°41'0 0.0
2018-Feb-23 02:30N 01°11' E 103°41'0 0.0
2018-Feb-23 01:54N 01°11' E 103°41'0 0.2
2018-Feb-23 01:30N 01°11' E 103°41'0 0.1
2018-Feb-23 00:57N 01°11' E 103°41'0 0.1
2018-Feb-23 00:30N 01°11' E 103°41'0 0.0
2018-Feb-23 00:00N 01°11' E 103°41'0 0.1
2018-Feb-22 23:30N 01°11' E 103°41'0 0.1
2018-Feb-22 22:57N 01°11' E 103°41'1 2.2
2018-Feb-22 22:30N 01°10' E 103°42'4 7.3
2018-Feb-22 22:01N 01°09' E 103°45'4 8.7
2018-Feb-22 21:31N 01°11' E 103°49'4 7.6
2018-Feb-22 21:00N 01°12' E 103°53'610.9
2018-Feb-22 20:30N 01°15' E 103°58'4 8.9
2018-Feb-22 20:00N 01°15' E 104°02'  

Dump ship's entire track history